Have a Safe July 4th! 

Flight Track Log - Related Links

Times and Time Zones

All times are in EDT time to prevent confusion due to time zone crossing. See the N208TH flight status page for this flight to view local times or setup timezone preferences in your user account.

Time Position Orientation Groundspeed Altitude Reporting Facility
EDT Latitude Longitude Course Direction KTS MPH feet Rate Location/Type
Mon 10:47:22 AM 34.0833 -84.6333 105° East 134 154 2,400  Level Atlanta TRACON
Mon 10:48:22 AM 34.1167 -84.6333 360° North 132 152 3,000 600 Climbing Atlanta TRACON
Mon 10:49:22 AM 34.1333 -84.6000 59° Northeast 144 166 3,600 600 Climbing Atlanta TRACON
Mon 10:50:22 AM 34.1333 -84.5667 90° East 122 140 4,200 600 Climbing Atlanta TRACON
Mon 10:51:22 AM 34.1333 -84.5167 90° East 124 143 4,800 550 Climbing Atlanta TRACON
Mon 10:52:00 AM 34.1727 -84.3965 105° East  Level Estimated
Mon 10:52:22 AM 34.1333 -84.4833 90° East 118 136 5,300  Level Atlanta TRACON
Mon 10:53:22 AM 34.1167 -84.4500 121° Southeast 110 127 5,800 500 Climbing Atlanta TRACON
Mon 10:54:22 AM 34.1167 -84.4167 90° East 114 131 6,300 550 Climbing Atlanta TRACON
Mon 10:55:22 AM 34.1167 -84.3667 90° East 113 130 6,900 333 Climbing Atlanta TRACON
Mon 10:56:28 AM 34.1000 -84.3333 121° Southeast 131 151 7,000 48 Climbing Atlanta TRACON
Mon 10:57:28 AM 34.1000 -84.2833 90° East 155 178 7,000  Level Atlanta TRACON
Mon 10:58:28 AM 34.0833 -84.2333 112° Southeast 160 184 7,000  Level Atlanta TRACON
Mon 10:59:28 AM 34.0833 -84.1667 90° East 160 184 7,000  Level Atlanta TRACON
Mon 11:00:28 AM 34.0833 -84.1167 90° East 166 191 7,000  Level Atlanta TRACON
Mon 11:01:22 AM 34.0667 -84.0667 112° Southeast 165 190 7,000  Level Atlanta TRACON
Mon 11:02:22 AM 34.0667 -84.0167 90° East 163 188 7,000  Level Atlanta TRACON
Mon 11:03:22 AM 34.0500 -83.9667 112° Southeast 159 183 7,000  Level Atlanta TRACON
Mon 11:04:28 AM 34.0500 -83.9000 90° East 160 184 7,000 135 Level Atlanta TRACON
Mon 11:06:20 AM 34.0175 -83.8233 117° Southeast 162 186 7,400 314 Climbing Atlanta Center
Mon 11:07:20 AM 34.0047 -83.7833 111° Southeast 136 157 7,900 450 Climbing Atlanta Center
Mon 11:08:20 AM 33.9964 -83.7431 104° East 125 144 8,300 400 Climbing Atlanta Center
Mon 11:09:20 AM 33.9919 -83.7006 97° East 125 144 8,700 450 Climbing Atlanta Center
Mon 11:10:20 AM 33.9878 -83.6631 98° East 120 138 9,200 400 Climbing Atlanta Center
Mon 11:11:20 AM 33.9856 -83.6278 94° East 113 130 9,500 350 Climbing Atlanta Center
Mon 11:12:20 AM 33.9814 -83.5928 98° East 107 123 9,900 350 Climbing Atlanta Center
Mon 11:13:20 AM 33.9769 -83.5603 99° East 102 117 10,200 300 Climbing Atlanta Center
Mon 11:14:20 AM 33.9728 -83.5253 98° East 102 117 10,500 300 Climbing Atlanta Center
Mon 11:15:20 AM 33.9706 -83.4878 94° East 102 117 10,800 250 Climbing Atlanta Center
Mon 11:16:20 AM 33.9661 -83.4553 99° East 102 117 11,000 100 Climbing Atlanta Center
Mon 11:17:20 AM 33.9597 -83.4103 100° East 116 133 11,000  Level Atlanta Center
Mon 11:18:20 AM 33.9531 -83.3678 101° East 132 152 11,000 -50 Level Atlanta Center
Mon 11:19:20 AM 33.9675 -83.3200 70° East 142 163 10,900  Descending Atlanta Center
Mon 11:20:20 AM 34.0028 -83.2919 33° Northeast 143 165 11,000 50 Climbing Atlanta Center
Mon 11:21:20 AM 34.0422 -83.2617 32° Northeast 156 180 11,000  Level Atlanta Center
Mon 11:22:20 AM 34.0817 -83.2336 31° Northeast 156 180 11,000  Level Atlanta Center
Mon 11:23:20 AM 34.1169 -83.2083 31° Northeast 156 180 11,000  Level Atlanta Center
Mon 11:24:20 AM 34.1522 -83.1803 33° Northeast 156 180 11,000  Level Atlanta Center
Mon 11:25:20 AM 34.1958 -83.1522 28° Northeast 156 180 11,000  Level Atlanta Center
Mon 11:26:20 AM 34.2269 -83.1217 39° Northeast 156 180 11,000  Level Atlanta Center
Mon 11:27:20 AM 34.2664 -83.0936 30° Northeast 156 180 11,000  Level Atlanta Center
Mon 11:28:20 AM 34.3058 -83.0681 28° Northeast 151 174 11,000  Level Atlanta Center
Mon 11:29:20 AM 34.3411 -83.0400 33° Northeast 145 167 11,000  Level Atlanta Center
Mon 11:30:20 AM 34.3786 -83.0169 27° Northeast 150 173 11,000  Level Atlanta Center
Mon 11:31:20 AM 34.4181 -82.9914 28° Northeast 155 178 11,000  Level Atlanta Center
Mon 11:32:20 AM 34.4492 -82.9606 39° Northeast 155 178 11,000  Level Atlanta Center
Mon 11:33:20 AM 34.4864 -82.9375 27° Northeast 150 173 11,000  Level Atlanta Center
Mon 11:34:20 AM 34.5258 -82.9117 28° Northeast 150 173 11,000  Level Atlanta Center
Mon 11:35:20 AM 34.5569 -82.8886 31° Northeast 144 166 11,000  Level Atlanta Center
Mon 11:36:20 AM 34.5900 -82.8631 32° Northeast 144 166 11,000  Level Atlanta Center
Mon 11:37:20 AM 34.6275 -82.8372 30° Northeast 144 166 11,000  Level Atlanta Center
Mon 11:38:20 AM 34.6625 -82.8114 31° Northeast 139 160 11,000  Level Atlanta Center
Mon 11:39:20 AM 34.7000 -82.7856 30° Northeast 144 166 11,000  Level Atlanta Center
Mon 11:40:20 AM 34.7372 -82.7572 32° Northeast 149 171 11,000  Level Atlanta Center
Mon 11:41:20 AM 34.7744 -82.7314 30° Northeast 149 171 11,000  Level Atlanta Center
Mon 11:42:20 AM 34.8117 -82.7031 32° Northeast 149 171 11,000  Level Atlanta Center
Mon 11:43:20 AM 34.8489 -82.6772 30° Northeast 149 171 11,000  Level Atlanta Center
Mon 11:44:20 AM 34.8864 -82.6511 30° Northeast 149 171 11,000 50 Level Atlanta Center
Mon 11:45:20 AM 34.9236 -82.6253 30° Northeast 149 171 11,100 50 Climbing Atlanta Center
Mon 11:46:20 AM 34.9586 -82.5992 31° Northeast 149 171 11,100 -50 Level Atlanta Center
Mon 11:47:20 AM 34.9939 -82.5708 33° Northeast 149 171 11,000 -50 Descending Atlanta Center
Mon 11:48:20 AM 35.0311 -82.5472 27° Northeast 144 166 11,000  Level Atlanta Center
Mon 11:49:20 AM 35.0661 -82.5161 36° Northeast 144 166 11,000  Level Atlanta Center
Mon 11:50:20 AM 35.1014 -82.4928 28° Northeast 138 159 11,000  Level Atlanta Center
Mon 11:51:20 AM 35.1383 -82.4564 39° Northeast 144 166 11,000  Level Atlanta Center
Mon 11:52:20 AM 35.1778 -82.4328 26° Northeast 149 171 11,000 50 Level Atlanta Center
Mon 11:53:20 AM 35.2214 -82.4067 26° Northeast 155 178 11,100 50 Climbing Atlanta Center
Mon 11:54:20 AM 35.2564 -82.3806 31° Northeast 150 173 11,100  Level Atlanta Center
Mon 11:55:20 AM 35.2936 -82.3567 28° Northeast 155 178 11,100  Level Atlanta Center
Mon 11:56:20 AM 35.3286 -82.3256 36° Northeast 155 178 11,100  Level Atlanta Center
Mon 11:57:20 AM 35.3658 -82.2992 30° Northeast 155 178 11,100  Level Atlanta Center
Mon 11:58:20 AM 35.3967 -82.2656 42° Northeast 150 173 11,100  Level Atlanta Center
Mon 11:59:20 AM 35.4211 -82.2192 57° Northeast 150 173 11,100  Level Atlanta Center
Mon 12:00:20 PM 35.4453 -82.1728 57° Northeast 150 173 11,100  Level Atlanta Center
Mon 12:01:20 PM 35.4697 -82.1211 60° Northeast 155 178 11,100  Level Atlanta Center
Mon 12:02:20 PM 35.4919 -82.0747 60° Northeast 155 178 11,100  Level Atlanta Center
Mon 12:03:20 PM 35.5161 -82.0256 59° Northeast 160 184 11,100  Level Atlanta Center
Mon 12:04:20 PM 35.5383 -81.9792 60° Northeast 166 191 11,100  Level Atlanta Center
Mon 12:05:20 PM 35.5603 -81.9300 61° Northeast 166 191 11,100 -50 Level Atlanta Center
Mon 12:06:20 PM 35.5825 -81.8811 61° Northeast 161 185 11,000 -50 Descending Atlanta Center
Mon 12:07:20 PM 35.6044 -81.8344 60° Northeast 161 185 11,000  Level Atlanta Center
Mon 12:08:20 PM 35.6267 -81.7853 61° Northeast 166 191 11,000  Level Atlanta Center
Mon 12:09:20 PM 35.6467 -81.7414 61° Northeast 166 191 11,000  Level Atlanta Center
Mon 12:10:20 PM 35.6689 -81.6947 60° Northeast 166 191 11,000  Level Atlanta Center
Mon 12:11:20 PM 35.6908 -81.6481 60° Northeast 166 191 11,000  Level Atlanta Center
Mon 12:12:20 PM 35.7128 -81.6014 60° Northeast 166 191 11,000  Level Atlanta Center
Mon 12:13:20 PM 35.7369 -81.5547 57° Northeast 161 185 11,000  Level Atlanta Center
Mon 12:14:20 PM 35.7589 -81.5053 61° Northeast 161 185 11,000  Level Atlanta Center
Mon 12:15:20 PM 35.7806 -81.4508 64° Northeast 161 185 11,000  Level Atlanta Center
Mon 12:16:20 PM 35.8047 -81.4014 59° Northeast 166 191 11,000  Level Atlanta Center
Mon 12:17:20 PM 35.8267 -81.3547 60° Northeast 166 191 11,000  Level Atlanta Center
Mon 12:18:20 PM 35.8483 -81.3053 62° Northeast 166 191 11,000  Level Atlanta Center
Mon 12:19:20 PM 35.8722 -81.2558 59° Northeast 166 191 11,000  Level Atlanta Center
Mon 12:20:20 PM 35.9006 -81.2136 50° Northeast 161 185 11,000  Level Atlanta Center
Mon 12:21:20 PM 35.9247 -81.1744 53° Northeast 161 185 11,000  Level Atlanta Center
Mon 12:22:20 PM 35.9508 -81.1300 54° Northeast 161 185 11,000  Level Atlanta Center
Mon 12:23:20 PM 35.9767 -81.0828 56° Northeast 161 185 11,000  Level Atlanta Center
Mon 12:24:20 PM 35.9964 -81.0333 64° Northeast 156 180 11,000  Level Atlanta Center
Mon 12:25:20 PM 36.0183 -80.9864 60° Northeast 156 180 11,000  Level Atlanta Center
Mon 12:26:20 PM 36.0439 -80.9314 60° Northeast 156 180 11,000  Level Atlanta Center
Mon 12:27:20 PM 36.0722 -80.8892 50° Northeast 156 180 11,000  Level Atlanta Center
Mon 12:28:20 PM 36.1022 -80.8494 47° Northeast 156 180 11,000  Level Atlanta Center
Mon 12:29:20 PM 36.1306 -80.8072 50° Northeast 156 180 11,000  Level Atlanta Center
Mon 12:30:20 PM 36.1586 -80.7650 51° Northeast 156 180 11,000  Level Atlanta Center
Mon 12:31:20 PM 36.1908 -80.7225 47° Northeast 156 180 11,000  Level Atlanta Center
Mon 12:32:20 PM 36.2208 -80.6828 47° Northeast 156 180 11,000  Level Atlanta Center
Mon 12:33:20 PM 36.2489 -80.6403 51° Northeast 156 180 11,000  Level Atlanta Center
Mon 12:34:20 PM 36.2811 -80.6003 45° Northeast 156 180 11,000  Level Atlanta Center
Mon 12:35:20 PM 36.3092 -80.5553 52° Northeast 161 185 11,000  Level Atlanta Center
Mon 12:36:20 PM 36.3394 -80.5153 47° Northeast 161 185 11,000  Level Atlanta Center
Mon 12:38:00 PM 36.4015 -80.4645 49° Northeast  Level FlightAware Approximate
Mon 12:42:18 PM 36.5133 -80.2697 49° Northeast 161 185 11,000  Level Washington Center
Mon 12:43:16 PM 36.5339 -80.2244 61° Northeast 175 201 11,000  Level Washington Center
Mon 12:44:17 PM 36.5586 -80.1767 57° Northeast 170 196 11,000  Level Washington Center
Mon 12:45:00 PM 36.5998 -80.1778 49° Northeast  Level FlightAware Approximate
Mon 12:45:18 PM 36.5836 -80.1214 61° Northeast 165 190 11,000  Level Washington Center
Mon 12:46:00 PM 36.6280 -80.1368 49° Northeast  Level FlightAware Approximate
Mon 12:46:15 PM 36.6122 -80.0814 48° Northeast 160 184 11,000  Level Washington Center
Mon 12:47:00 PM 36.6563 -80.0957 49° Northeast  Level FlightAware Approximate
Mon 12:47:16 PM 36.6408 -80.0392 50° Northeast 155 178 11,000  Level Washington Center
Mon 12:48:17 PM 36.6672 -80.0044 47° Northeast 149 171 11,000 -49 Level Washington Center
Mon 12:49:18 PM 36.6958 -79.9619 50° Northeast 149 171 10,900  Descending Washington Center
Mon 12:50:18 PM 36.7244 -79.9222 48° Northeast 149 171 11,000 50 Climbing Washington Center
Mon 12:51:17 PM 36.7594 -79.8775 46° Northeast 155 178 11,000  Level Washington Center
Mon 12:52:18 PM 36.7881 -79.8403 46° Northeast 155 178 11,000  Level Washington Center
Mon 12:53:18 PM 36.8186 -79.7978 48° Northeast 160 184 11,000  Level Washington Center
Mon 12:54:16 PM 36.8533 -79.7581 42° Northeast 160 184 11,000  Level Washington Center
Mon 12:55:16 PM 36.8817 -79.7233 44° Northeast 160 184 11,000  Level Washington Center
Mon 12:56:16 PM 36.9125 -79.6833 46° Northeast 160 184 11,000  Level Washington Center
Mon 12:57:17 PM 36.9431 -79.6433 46° Northeast 160 184 11,000  Level Washington Center
Mon 12:58:17 PM 36.9778 -79.5983 46° Northeast 160 184 11,000  Level Washington Center
Mon 12:59:16 PM 37.0083 -79.5583 46° Northeast 160 184 11,000  Level Washington Center
Mon 01:00:17 PM 37.0389 -79.5208 44° Northeast 160 184 11,000  Level Washington Center
Mon 01:01:17 PM 37.0672 -79.4781 50° Northeast 160 184 11,000  Level Washington Center
Mon 01:02:15 PM 37.0978 -79.4406 44° Northeast 160 184 11,000  Level Washington Center
Mon 01:03:16 PM 37.1283 -79.4003 46° Northeast 160 184 11,000  Level Washington Center
Mon 01:04:16 PM 37.1608 -79.3603 44° Northeast 160 184 11,000  Level Washington Center
Mon 01:05:17 PM 37.1936 -79.3150 48° Northeast 160 184 11,000  Level Washington Center
Mon 01:06:17 PM 37.2242 -79.2722 48° Northeast 160 184 11,000  Level Washington Center
Mon 01:07:18 PM 37.2544 -79.2292 49° Northeast 160 184 11,000  Level Washington Center
Mon 01:08:16 PM 37.2850 -79.1917 44° Northeast 160 184 11,000  Level Washington Center
Mon 01:09:16 PM 37.3175 -79.1486 46° Northeast 160 184 11,000  Level Washington Center
Mon 01:10:17 PM 37.3481 -79.1058 48° Northeast 160 184 11,000  Level Washington Center
Mon 01:11:18 PM 37.3828 -79.0603 46° Northeast 160 184 11,000  Level Washington Center
Mon 01:12:18 PM 37.4131 -79.0172 48° Northeast 160 184 11,000  Level Washington Center
Mon 01:13:16 PM 37.4458 -78.9717 48° Northeast 160 184 11,000  Level Washington Center
Mon 01:14:16 PM 37.4739 -78.9336 47° Northeast 160 184 11,000  Level Washington Center
Mon 01:15:18 PM 37.5042 -78.8903 49° Northeast 160 184 11,000 -246 Level Washington Center
Mon 01:16:18 PM 37.5369 -78.8447 48° Northeast 160 184 10,500 -504 Descending Washington Center
Mon 01:17:17 PM 37.5778 -78.7914 46° Northeast 171 197 10,000 -202 Descending Washington Center
Mon 01:18:17 PM 37.6083 -78.7456 50° Northeast 171 197 10,100 50 Climbing Washington Center
Mon 01:19:18 PM 37.6406 -78.7050 45° Northeast 165 190 10,100  Level Washington Center
Mon 01:20:16 PM 37.6667 -78.6639 51° Northeast 155 178 10,100 -303 Level Washington Center
Mon 01:21:17 PM 37.6969 -78.6206 49° Northeast 161 185 9,500 -545 Descending Washington Center
Mon 01:22:17 PM 37.7317 -78.5747 46° Northeast 167 192 9,000 -500 Descending Washington Center
Mon 01:23:17 PM 37.7639 -78.5314 47° Northeast 167 192 8,500 -496 Descending Washington Center
Mon 01:24:18 PM 37.7986 -78.4800 49° Northeast 167 192 8,000 -555 Descending Washington Center
Mon 01:25:16 PM 37.8331 -78.4342 46° Northeast 167 192 7,400 -323 Descending Washington Center
Mon 01:27:24 PM 37.9000 -78.3333 50° Northeast 168 193 7,000 -128 Descending Potomac TRACON
Mon 01:28:24 PM 37.9333 -78.2833 50° Northeast 163 188 7,000  Level Potomac TRACON
Mon 01:29:30 PM 37.9667 -78.2500 38° Northeast 164 189 7,000  Level Potomac TRACON
Mon 01:30:30 PM 37.9833 -78.2000 67° East 162 186 7,000  Level Potomac TRACON
Mon 01:31:25 PM 38.0167 -78.1667 38° Northeast 163 188 7,000 -99 Level Potomac TRACON
Mon 01:32:31 PM 38.0667 -78.1333 28° Northeast 157 181 6,800 -250 Descending Potomac TRACON
Mon 01:33:25 PM 38.1000 -78.1167 21° North 160 184 6,500 -526 Descending Potomac TRACON
Mon 01:34:25 PM 38.1500 -78.1000 15° North 159 183 5,800 -714 Descending Potomac TRACON
Mon 01:35:31 PM 38.1833 -78.0833 21° North 153 176 5,000 -429 Descending Potomac TRACON
Mon 01:36:31 PM 38.2333 -78.0667 15° North 144 166 4,900 -50 Descending Potomac TRACON
Mon 01:37:31 PM 38.2667 -78.0500 21° North 143 165 4,900  Level Potomac TRACON
Mon 01:38:31 PM 38.3000 -78.0333 21° North 147 169 4,900  Level Potomac TRACON
Mon 01:39:25 PM 38.3333 -78.0167 21° North 146 168 4,900  Level Potomac TRACON
Mon 01:40:31 PM 38.3833 -77.9833 28° Northeast 147 169 4,900  Level Potomac TRACON
Mon 01:41:26 PM 38.4167 -77.9667 21° North 147 169 4,900  Level Potomac TRACON
Mon 01:42:26 PM 38.4500 -77.9500 21° North 143 165 4,900 -248 Level Potomac TRACON
Mon 01:43:27 PM 38.4833 -77.9333 21° North 150 173 4,400 -446 Descending Potomac TRACON
Mon 01:44:27 PM 38.5333 -77.9167 15° North 151 174 4,000 -200 Descending Potomac TRACON
Mon 01:45:27 PM 38.5667 -77.9000 21° North 145 167 4,000  Level Potomac TRACON
Mon 01:46:27 PM 38.6000 -77.8833 21° North 149 171 4,000  Level Potomac TRACON
Mon 01:47:33 PM 38.6500 -77.8667 15° North 145 167 4,000  Level Potomac TRACON
Mon 01:48:27 PM 38.6833 -77.8500 21° North 153 176 4,000  Level Potomac TRACON
Mon 01:49:28 PM 38.7167 -77.8333 21° North 152 175 4,000  Level Potomac TRACON
Mon 01:50:28 PM 38.7667 -77.8167 15° North 151 174 4,000  Level Potomac TRACON
Mon 01:51:28 PM 38.8000 -77.8000 21° North 150 173 4,000 -100 Level Potomac TRACON
Mon 01:52:28 PM 38.8333 -77.7667 38° Northeast 157 181 3,800 -300 Descending Potomac TRACON
Mon 01:53:28 PM 38.8833 -77.7500 15° North 158 182 3,400 -400 Descending Potomac TRACON
Mon 01:54:28 PM 38.9167 -77.7333 21° North 161 185 3,000 -200 Descending Potomac TRACON
Mon 01:55:28 PM 38.9667 -77.7167 15° North 150 173 3,000  Level Potomac TRACON
Mon 01:56:29 PM 39.0000 -77.7000 21° North 146 168 3,000 -298 Level Potomac TRACON
Mon 01:57:29 PM 39.0167 -77.6500 67° East 146 168 2,400 -500 Descending Potomac TRACON
Mon 01:58:29 PM 39.0500 -77.6167 38° Northeast 151 174 2,000 -524 Descending Potomac TRACON
Mon 01:59:35 PM 39.0500 -77.5667 90° East 131 151 1,300 -700 Descending Potomac TRACON
Mon 02:00:29 PM 39.0667 -77.5500 38° Northeast 97 112 600 -778 Descending Potomac TRACON

Login

Don't have an account? Register now (free) for customized features, flight alerts, and more!